富士山静岡空港METAR/TAF(約33km東):

RJNS 311200Z 34005KT 300V360 9999 FEW030 12/05 Q1026

TAF RJNS 311105Z 3112/0118 34006KT 9999 FEW030 BECMG 0100/0103 12006KT BECMG 0109/0112 35004KT

ソアリング用気象予報:
BLIPMAP 中部地方
中部日本航空連盟および大野グライダークラブの支援により運営されているソアリング用気象予報BLIPMAPの中部地方版です。

風向風力(Windy.com):
スマホでの閲覧には、アプリ版Windy(Android/iOS)が適切です。

EGC Icon